createdAt,value
2019-03-19T00:00:49.589Z,1014.18
2019-03-19T00:01:49.577Z,1014.18
2019-03-19T00:02:49.568Z,1014.20
2019-03-19T00:03:49.559Z,1014.27
2019-03-19T00:04:49.548Z,1014.24
2019-03-19T00:05:49.538Z,1014.25
2019-03-19T00:06:49.530Z,1014.27
2019-03-19T00:07:49.529Z,1014.25
2019-03-19T00:08:49.514Z,1014.28
2019-03-19T00:09:49.512Z,1014.24
2019-03-19T00:10:49.489Z,1014.30
2019-03-19T00:11:49.476Z,1014.33
2019-03-19T00:12:49.464Z,1014.37
2019-03-19T00:13:49.459Z,1014.27
2019-03-19T00:14:49.441Z,1014.36
2019-03-19T00:15:49.435Z,1014.39
2019-03-19T00:16:49.420Z,1014.42
2019-03-19T00:17:49.411Z,1014.43
2019-03-19T00:18:49.401Z,1014.44
2019-03-19T00:19:49.400Z,1014.46
2019-03-19T00:20:49.380Z,1014.48
2019-03-19T00:21:49.377Z,1014.48
2019-03-19T00:22:49.356Z,1014.48
2019-03-19T00:23:49.352Z,1014.54
2019-03-19T00:24:49.336Z,1014.55
2019-03-19T00:25:49.344Z,1014.53
2019-03-19T00:26:49.318Z,1014.55
2019-03-19T00:27:49.322Z,1014.58
2019-03-19T00:28:49.296Z,1014.60
2019-03-19T00:29:49.284Z,1014.61
2019-03-19T00:30:49.272Z,1014.61
2019-03-19T00:31:49.276Z,1014.54
2019-03-19T00:32:49.270Z,1014.59
2019-03-19T00:33:49.244Z,1014.56
2019-03-19T00:34:49.229Z,1014.56
2019-03-19T00:35:49.225Z,1014.54
2019-03-19T00:36:49.217Z,1014.57
2019-03-19T00:37:49.203Z,1014.53
2019-03-19T00:38:49.196Z,1014.55
2019-03-19T00:39:49.179Z,1014.54
2019-03-19T00:40:49.168Z,1014.51
2019-03-19T00:41:49.160Z,1014.54
2019-03-19T00:42:49.146Z,1014.47
2019-03-19T00:43:49.154Z,1014.49
2019-03-19T00:44:49.128Z,1014.52
2019-03-19T00:45:49.117Z,1014.48
2019-03-19T00:46:49.106Z,1014.49
2019-03-19T00:47:49.099Z,1014.55
2019-03-19T00:48:49.083Z,1014.52
2019-03-19T00:49:49.090Z,1014.50
2019-03-19T00:50:49.113Z,1014.48
2019-03-19T00:51:49.066Z,1014.51
2019-03-19T00:52:49.042Z,1014.50
2019-03-19T00:53:49.035Z,1014.50
2019-03-19T00:54:49.021Z,1014.52
2019-03-19T00:55:49.016Z,1014.49
2019-03-19T00:56:49.001Z,1014.50
2019-03-19T00:57:49.015Z,1014.53
2019-03-19T00:58:48.977Z,1014.52
2019-03-19T00:59:48.971Z,1014.56
2019-03-19T01:00:48.962Z,1014.56
2019-03-19T01:01:48.949Z,1014.56
2019-03-19T01:02:48.948Z,1014.56
2019-03-19T01:03:48.935Z,1014.58
2019-03-19T01:04:48.917Z,1014.61
2019-03-19T01:05:49.634Z,1014.59
2019-03-19T01:06:48.898Z,1014.57
2019-03-19T01:07:48.893Z,1014.61
2019-03-19T01:08:48.879Z,1014.61
2019-03-19T01:09:48.863Z,1014.56
2019-03-19T01:10:48.852Z,1014.54
2019-03-19T01:11:48.848Z,1014.54
2019-03-19T01:12:48.830Z,1014.51
2019-03-19T01:13:48.830Z,1014.51
2019-03-19T01:14:48.815Z,1014.53
2019-03-19T01:15:48.799Z,1014.53
2019-03-19T01:16:48.788Z,1014.54
2019-03-19T01:17:48.778Z,1014.51
2019-03-19T01:18:48.781Z,1014.55
2019-03-19T01:19:48.769Z,1014.51
2019-03-19T01:20:48.756Z,1014.51
2019-03-19T01:21:48.737Z,1014.55
2019-03-19T01:22:48.724Z,1014.55
2019-03-19T01:23:48.717Z,1014.56
2019-03-19T01:24:48.702Z,1014.59
2019-03-19T01:25:55.600Z,1014.62
2019-03-19T01:26:49.680Z,1014.65
2019-03-19T01:27:48.674Z,1014.66
2019-03-19T01:28:48.659Z,1014.64
2019-03-19T01:29:48.652Z,1014.67
2019-03-19T01:30:48.638Z,1014.66
2019-03-19T01:31:48.642Z,1014.69
2019-03-19T01:32:48.622Z,1014.68
2019-03-19T01:33:48.608Z,1014.70
2019-03-19T01:34:48.604Z,1014.73
2019-03-19T01:35:48.587Z,1014.71
2019-03-19T01:36:48.579Z,1014.71
2019-03-19T01:37:48.566Z,1014.68
2019-03-19T01:38:48.556Z,1014.76
2019-03-19T01:39:48.545Z,1014.75
2019-03-19T01:40:48.534Z,1014.80
2019-03-19T01:41:48.523Z,1014.77
2019-03-19T01:42:48.513Z,1014.80
2019-03-19T01:43:48.518Z,1014.82
2019-03-19T01:44:48.503Z,1014.86
2019-03-19T01:45:48.481Z,1014.89
2019-03-19T01:46:48.475Z,1014.88
2019-03-19T01:47:48.465Z,1014.87
2019-03-19T01:48:48.457Z,1014.86
2019-03-19T01:49:48.444Z,1014.90
2019-03-19T01:50:48.425Z,1014.90
2019-03-19T01:51:48.421Z,1014.88
2019-03-19T01:52:48.406Z,1014.87
2019-03-19T01:53:48.402Z,1014.93
2019-03-19T01:54:48.389Z,1014.92
2019-03-19T01:55:48.395Z,1015.05
2019-03-19T01:56:48.361Z,1015.00
2019-03-19T01:57:48.355Z,1015.03
2019-03-19T01:58:48.349Z,1015.05
2019-03-19T01:59:48.355Z,1015.07
2019-03-19T02:00:48.327Z,1015.06
2019-03-19T02:01:48.308Z,1015.13
2019-03-19T02:02:48.298Z,1015.10
2019-03-19T02:03:48.401Z,1015.10
2019-03-19T02:04:48.280Z,1015.10
2019-03-19T02:05:48.270Z,1015.17
2019-03-19T02:06:48.268Z,1015.13
2019-03-19T02:07:48.244Z,1015.19
2019-03-19T02:08:48.234Z,1015.17
2019-03-19T02:09:48.227Z,1015.17
2019-03-19T02:10:48.220Z,1015.20
2019-03-19T02:11:48.205Z,1015.18
2019-03-19T02:12:48.208Z,1015.14
2019-03-19T02:13:48.189Z,1015.13
2019-03-19T02:14:48.176Z,1015.15
2019-03-19T02:15:48.159Z,1015.16
2019-03-19T02:16:48.165Z,1015.14
2019-03-19T02:17:48.140Z,1015.15
2019-03-19T02:18:48.143Z,1015.17
2019-03-19T02:19:48.118Z,1015.17
2019-03-19T02:20:48.107Z,1015.21
2019-03-19T02:21:48.099Z,1015.27
2019-03-19T02:22:48.086Z,1015.27
2019-03-19T02:23:48.076Z,1015.30
2019-03-19T02:24:48.093Z,1015.29
2019-03-19T02:25:48.056Z,1015.26
2019-03-19T02:26:48.045Z,1015.29
2019-03-19T02:27:48.035Z,1015.31
2019-03-19T02:28:48.040Z,1015.36
2019-03-19T02:29:48.012Z,1015.34
2019-03-19T02:30:48.018Z,1015.37
2019-03-19T02:31:47.993Z,1015.37
2019-03-19T02:32:47.983Z,1015.37
2019-03-19T02:33:47.977Z,1015.43
2019-03-19T02:34:47.980Z,1015.44
2019-03-19T02:35:47.961Z,1015.41
2019-03-19T02:36:47.959Z,1015.45
2019-03-19T02:37:47.930Z,1015.42
2019-03-19T02:38:47.920Z,1015.43
2019-03-19T02:39:47.912Z,1015.47
2019-03-19T02:40:47.914Z,1015.44
2019-03-19T02:41:47.894Z,1015.45
2019-03-19T02:42:47.893Z,1015.46
2019-03-19T02:43:47.868Z,1015.47
2019-03-19T02:44:47.859Z,1015.48
2019-03-19T02:45:47.863Z,1015.47
2019-03-19T02:46:47.837Z,1015.50
2019-03-19T02:47:48.214Z,1015.51
2019-03-19T02:48:47.826Z,1015.47
2019-03-19T02:49:47.811Z,1015.52
2019-03-19T02:50:47.791Z,1015.54
2019-03-19T02:51:47.793Z,1015.54
2019-03-19T02:52:47.771Z,1015.57
2019-03-19T02:53:47.773Z,1015.59
2019-03-19T02:54:47.749Z,1015.54
2019-03-19T02:55:47.742Z,1015.59
2019-03-19T02:56:47.731Z,1015.61
2019-03-19T02:57:47.725Z,1015.57
2019-03-19T02:58:47.710Z,1015.59
2019-03-19T02:59:47.710Z,1015.55
2019-03-19T03:00:47.687Z,1015.58
2019-03-19T03:01:47.681Z,1015.57
2019-03-19T03:02:47.678Z,1015.63
2019-03-19T03:03:47.665Z,1015.66
2019-03-19T03:04:47.645Z,1015.67
2019-03-19T03:05:47.646Z,1015.68
2019-03-19T03:06:47.623Z,1015.72
2019-03-19T03:07:47.635Z,1015.76
2019-03-19T03:08:47.605Z,1015.77
2019-03-19T03:09:47.601Z,1015.75
2019-03-19T03:10:47.582Z,1015.74
2019-03-19T03:11:47.579Z,1015.78
2019-03-19T03:12:47.561Z,1015.80
2019-03-19T03:13:47.551Z,1015.77
2019-03-19T03:14:47.546Z,1015.80
2019-03-19T03:15:47.541Z,1015.78
2019-03-19T03:16:47.516Z,1015.79
2019-03-19T03:17:47.527Z,1015.77
2019-03-19T03:18:47.497Z,1015.75
2019-03-19T03:19:47.493Z,1015.74
2019-03-19T03:20:47.476Z,1015.76
2019-03-19T03:21:47.480Z,1015.75
2019-03-19T03:22:47.489Z,1015.71
2019-03-19T03:23:47.461Z,1015.72
2019-03-19T03:24:47.491Z,1015.75
2019-03-19T03:25:47.426Z,1015.74
2019-03-19T03:26:48.875Z,1015.77
2019-03-19T03:27:47.405Z,1015.77
2019-03-19T03:28:47.394Z,1015.84
2019-03-19T03:29:47.388Z,1015.84
2019-03-19T03:30:47.367Z,1015.88
2019-03-19T03:31:47.356Z,1015.90
2019-03-19T03:32:47.411Z,1015.91
2019-03-19T03:33:47.336Z,1015.93
2019-03-19T03:34:47.335Z,1015.95
2019-03-19T03:35:47.313Z,1015.98
2019-03-19T03:36:47.303Z,1015.98
2019-03-19T03:37:47.295Z,1016.00
2019-03-19T03:38:47.282Z,1016.01
2019-03-19T03:39:47.272Z,1016.04
2019-03-19T03:40:47.271Z,1016.06
2019-03-19T03:41:47.250Z,1016.04
2019-03-19T03:42:47.239Z,1016.09
2019-03-19T03:43:47.227Z,1016.11
2019-03-19T03:44:47.218Z,1016.07
2019-03-19T03:45:47.214Z,1016.08
2019-03-19T03:46:47.232Z,1016.09
2019-03-19T03:47:47.188Z,1016.12
2019-03-19T03:48:47.180Z,1016.18
2019-03-19T03:49:47.163Z,1016.21
2019-03-19T03:50:47.159Z,1016.25
2019-03-19T03:51:47.146Z,1016.27
2019-03-19T03:52:47.147Z,1016.26
2019-03-19T03:53:47.122Z,1016.30
2019-03-19T03:54:47.112Z,1016.31
2019-03-19T03:55:47.106Z,1016.39
2019-03-19T03:57:00.963Z,1016.40
2019-03-19T03:57:48.078Z,1016.42
2019-03-19T03:58:59.904Z,1016.43
2019-03-19T03:59:48.056Z,1016.50
2019-03-19T04:00:47.047Z,1016.51
2019-03-19T04:01:47.067Z,1016.47
2019-03-19T04:02:47.042Z,1016.44
2019-03-19T04:03:47.028Z,1016.49
2019-03-19T04:04:47.020Z,1016.49
2019-03-19T04:05:46.994Z,1016.47
2019-03-19T04:06:46.983Z,1016.50
2019-03-19T04:07:46.973Z,1016.50
2019-03-19T04:08:46.971Z,1016.50
2019-03-19T04:09:46.965Z,1016.55
2019-03-19T04:10:46.942Z,1016.54
2019-03-19T04:11:46.927Z,1016.58
2019-03-19T04:12:46.920Z,1016.59
2019-03-19T04:13:46.909Z,1016.60
2019-03-19T04:14:47.124Z,1016.63
2019-03-19T04:15:46.891Z,1016.64
2019-03-19T04:16:46.872Z,1016.64
2019-03-19T04:17:46.862Z,1016.67
2019-03-19T04:18:46.851Z,1016.67
2019-03-19T04:19:46.845Z,1016.70
2019-03-19T04:20:46.839Z,1016.70
2019-03-19T04:21:46.828Z,1016.71
2019-03-19T04:22:46.858Z,1016.79
2019-03-19T04:23:46.797Z,1016.78
2019-03-19T04:24:46.786Z,1016.80
2019-03-19T04:25:46.784Z,1016.81
2019-03-19T04:26:46.767Z,1016.79
2019-03-19T04:27:46.771Z,1016.79
2019-03-19T04:28:46.742Z,1016.76
2019-03-19T04:29:46.733Z,1016.76
2019-03-19T04:30:46.725Z,1016.78
2019-03-19T04:31:46.731Z,1016.77
2019-03-19T04:32:46.722Z,1016.76
2019-03-19T04:33:46.711Z,1016.73
2019-03-19T04:34:46.676Z,1016.79
2019-03-19T04:35:46.667Z,1016.72
2019-03-19T04:36:46.655Z,1016.78
2019-03-19T04:37:46.656Z,1016.81
2019-03-19T04:38:46.646Z,1016.80
2019-03-19T04:39:46.647Z,1016.83
2019-03-19T04:40:46.615Z,1016.84
2019-03-19T04:41:46.603Z,1016.84
2019-03-19T04:42:46.603Z,1016.86
2019-03-19T04:43:46.580Z,1016.85
2019-03-19T04:44:46.579Z,1016.90
2019-03-19T04:45:46.560Z,1016.89
2019-03-19T04:46:46.545Z,1016.90
2019-03-19T04:47:46.533Z,1016.88
2019-03-19T04:48:46.530Z,1016.89
2019-03-19T04:49:46.518Z,1016.91
2019-03-19T04:50:46.521Z,1016.93
2019-03-19T04:51:46.489Z,1016.95
2019-03-19T04:52:46.485Z,1016.96
2019-03-19T04:53:46.468Z,1017.04
2019-03-19T04:54:46.464Z,1017.03
2019-03-19T04:55:46.464Z,1017.05
2019-03-19T04:56:46.461Z,1017.07
2019-03-19T04:57:46.424Z,1017.10
2019-03-19T04:58:46.413Z,1017.09
2019-03-19T04:59:46.409Z,1017.10
2019-03-19T05:00:46.399Z,1017.13
2019-03-19T05:01:46.383Z,1017.17
2019-03-19T05:02:46.378Z,1017.17
2019-03-19T05:03:46.361Z,1017.18
2019-03-19T05:04:46.352Z,1017.19
2019-03-19T05:05:46.341Z,1017.16
2019-03-19T05:06:46.329Z,1017.18
2019-03-19T05:07:46.320Z,1017.16
2019-03-19T05:08:46.330Z,1017.18
2019-03-19T05:09:46.295Z,1017.20
2019-03-19T05:10:46.282Z,1017.18
2019-03-19T05:11:46.274Z,1017.26
2019-03-19T05:12:46.266Z,1017.24
2019-03-19T05:13:46.260Z,1017.28
2019-03-19T05:14:46.238Z,1017.26
2019-03-19T05:15:46.227Z,1017.27
2019-03-19T05:16:46.218Z,1017.33
2019-03-19T05:17:46.223Z,1017.30
2019-03-19T05:18:46.218Z,1017.33
2019-03-19T05:19:46.210Z,1017.32
2019-03-19T05:20:46.172Z,1017.38
2019-03-19T05:21:46.162Z,1017.35
2019-03-19T05:22:46.165Z,1017.36
2019-03-19T05:23:46.145Z,1017.37
2019-03-19T05:24:46.136Z,1017.36
2019-03-19T05:25:46.133Z,1017.37
2019-03-19T05:26:46.107Z,1017.42
2019-03-19T05:27:46.095Z,1017.45
2019-03-19T05:28:46.087Z,1017.40
2019-03-19T05:29:46.081Z,1017.43
2019-03-19T05:30:46.067Z,1017.48
2019-03-19T05:31:46.061Z,1017.47
2019-03-19T05:32:46.044Z,1017.50
2019-03-19T05:33:46.029Z,1017.46
2019-03-19T05:34:46.034Z,1017.50
2019-03-19T05:35:46.013Z,1017.49
2019-03-19T05:36:46.009Z,1017.49
2019-03-19T05:37:45.988Z,1017.53
2019-03-19T05:38:45.975Z,1017.54
2019-03-19T05:39:45.964Z,1017.51
2019-03-19T05:40:45.955Z,1017.55
2019-03-19T05:41:45.942Z,1017.60
2019-03-19T05:42:45.937Z,1017.54
2019-03-19T05:43:45.922Z,1017.59
2019-03-19T05:44:45.910Z,1017.59
2019-03-19T05:45:45.899Z,1017.55
2019-03-19T05:46:45.886Z,1017.59
2019-03-19T05:47:45.880Z,1017.63
2019-03-19T05:48:45.872Z,1017.67
2019-03-19T05:49:45.853Z,1017.65
2019-03-19T05:50:45.846Z,1017.69
2019-03-19T05:51:45.837Z,1017.72
2019-03-19T05:52:48.287Z,1017.77
2019-03-19T05:53:45.815Z,1017.76
2019-03-19T05:54:45.810Z,1017.79
2019-03-19T05:55:45.788Z,1017.80
2019-03-19T05:56:45.782Z,1017.79
2019-03-19T05:57:49.827Z,1017.85
2019-03-19T05:58:45.767Z,1017.87
2019-03-19T05:59:45.767Z,1017.87
2019-03-19T06:00:45.741Z,1017.94
2019-03-19T06:01:45.724Z,1017.93
2019-03-19T06:02:45.713Z,1017.91
2019-03-19T06:03:45.705Z,1017.93
2019-03-19T06:04:45.710Z,1017.93
2019-03-19T06:05:45.696Z,1017.96
2019-03-19T06:06:45.668Z,1017.94
2019-03-19T06:07:45.673Z,1017.91
2019-03-19T06:08:45.646Z,1017.92
2019-03-19T06:09:45.639Z,1017.93
2019-03-19T06:10:45.626Z,1017.95
2019-03-19T06:11:45.619Z,1017.96
2019-03-19T06:12:45.622Z,1017.99
2019-03-19T06:13:45.592Z,1018.00
2019-03-19T06:14:45.582Z,1018.01
2019-03-19T06:15:45.573Z,1017.98
2019-03-19T06:16:45.589Z,1017.99
2019-03-19T06:17:45.550Z,1017.98
2019-03-19T06:18:45.537Z,1018.01
2019-03-19T06:19:45.526Z,1018.00
2019-03-19T06:20:45.518Z,1018.00
2019-03-19T06:21:45.515Z,1018.03
2019-03-19T06:22:45.502Z,1018.03
2019-03-19T06:23:45.485Z,1018.01
2019-03-19T06:24:45.472Z,1018.04
2019-03-19T06:25:45.461Z,1018.04
2019-03-19T06:26:45.452Z,1018.04
2019-03-19T06:27:45.453Z,1018.04
2019-03-19T06:28:45.431Z,1018.06
2019-03-19T06:29:45.423Z,1018.06
2019-03-19T06:30:45.406Z,1018.07
2019-03-19T06:31:45.394Z,1018.12
2019-03-19T06:32:45.389Z,1018.10
2019-03-19T06:33:45.378Z,1018.10
2019-03-19T06:34:45.363Z,1018.13
2019-03-19T06:35:45.366Z,1018.11
2019-03-19T06:36:45.340Z,1018.09
2019-03-19T06:37:45.331Z,1018.13
2019-03-19T06:38:45.330Z,1018.13
2019-03-19T06:39:45.322Z,1018.16
2019-03-19T06:40:45.299Z,1018.18
2019-03-19T06:41:45.284Z,1018.19
2019-03-19T06:42:45.273Z,1018.23
2019-03-19T06:43:45.274Z,1018.29
2019-03-19T06:44:45.255Z,1018.30
2019-03-19T06:45:45.251Z,1018.29
2019-03-19T06:46:45.233Z,1018.27
2019-03-19T06:47:45.225Z,1018.25
2019-03-19T06:48:45.211Z,1018.23
2019-03-19T06:49:45.202Z,1018.25
2019-03-19T06:50:45.770Z,1018.26
2019-03-19T06:51:45.177Z,1018.25
2019-03-19T06:52:45.169Z,1018.26
2019-03-19T06:53:45.156Z,1018.30
2019-03-19T06:54:45.148Z,1018.28
2019-03-19T06:55:45.135Z,1018.31
2019-03-19T06:56:45.128Z,1018.28
2019-03-19T06:57:45.113Z,1018.26
2019-03-19T06:58:45.107Z,1018.26
2019-03-19T06:59:45.097Z,1018.27
2019-03-19T07:00:45.080Z,1018.30
2019-03-19T07:01:45.070Z,1018.28
2019-03-19T07:02:45.073Z,1018.29
2019-03-19T07:03:45.049Z,1018.33
2019-03-19T07:04:45.045Z,1018.31
2019-03-19T07:05:45.038Z,1018.32
2019-03-19T07:06:45.031Z,1018.36
2019-03-19T07:07:45.005Z,1018.39
2019-03-19T07:08:44.998Z,1018.40
2019-03-19T07:09:44.987Z,1018.38
2019-03-19T07:10:44.973Z,1018.38
2019-03-19T07:11:44.961Z,1018.39
2019-03-19T07:12:44.963Z,1018.39
2019-03-19T07:13:44.962Z,1018.39
2019-03-19T07:14:44.927Z,1018.40
2019-03-19T07:15:44.926Z,1018.43
2019-03-19T07:16:44.905Z,1018.39
2019-03-19T07:17:44.894Z,1018.44
2019-03-19T07:18:44.884Z,1018.53
2019-03-19T07:19:44.879Z,1018.51
2019-03-19T07:20:44.864Z,1018.60
2019-03-19T07:21:44.851Z,1018.53
2019-03-19T07:22:44.860Z,1018.52
2019-03-19T07:23:44.830Z,1018.50
2019-03-19T07:24:44.819Z,1018.57
2019-03-19T07:25:44.813Z,1018.56
2019-03-19T07:26:44.797Z,1018.54
2019-03-19T07:27:44.792Z,1018.53
2019-03-19T07:28:44.779Z,1018.56
2019-03-19T07:29:44.773Z,1018.67
2019-03-19T07:30:44.759Z,1018.64
2019-03-19T07:31:44.752Z,1018.63
2019-03-19T07:32:44.733Z,1018.63
2019-03-19T07:33:44.728Z,1018.69
2019-03-19T07:34:44.717Z,1018.73
2019-03-19T07:35:44.710Z,1018.71
2019-03-19T07:36:44.702Z,1018.71
2019-03-19T07:37:44.688Z,1018.74
2019-03-19T07:38:44.671Z,1018.77
2019-03-19T07:39:44.667Z,1018.78
2019-03-19T07:40:44.648Z,1018.85
2019-03-19T07:41:44.647Z,1018.85
2019-03-19T07:42:44.641Z,1018.84
2019-03-19T07:43:44.625Z,1018.89
2019-03-19T07:44:44.612Z,1018.87
2019-03-19T07:45:44.602Z,1018.89
2019-03-19T07:46:45.940Z,1018.89
2019-03-19T07:47:44.576Z,1018.92
2019-03-19T07:48:44.565Z,1018.92
2019-03-19T07:49:44.558Z,1018.88
2019-03-19T07:50:44.547Z,1018.89
2019-03-19T07:51:44.535Z,1018.96
2019-03-19T07:52:44.520Z,1019.00
2019-03-19T07:53:44.524Z,1018.95
2019-03-19T07:54:44.496Z,1019.02
2019-03-19T07:55:44.542Z,1019.01
2019-03-19T07:56:44.473Z,1019.01
2019-03-19T07:57:44.464Z,1019.04
2019-03-19T07:58:45.566Z,1019.02
2019-03-19T07:59:44.442Z,1019.05
2019-03-19T08:00:44.438Z,1019.03
2019-03-19T08:01:44.420Z,1019.03
2019-03-19T08:02:44.409Z,1019.04
2019-03-19T08:03:44.396Z,1019.04
2019-03-19T08:04:44.396Z,1019.07
2019-03-19T08:05:44.379Z,1019.09
2019-03-19T08:06:44.372Z,1019.09
2019-03-19T08:07:44.358Z,1019.10
2019-03-19T08:08:44.422Z,1019.12
2019-03-19T08:09:44.334Z,1019.15
2019-03-19T08:10:44.330Z,1019.11
2019-03-19T08:11:44.313Z,1019.17
2019-03-19T08:12:44.312Z,1019.16
2019-03-19T08:13:44.292Z,1019.16
2019-03-19T08:14:44.277Z,1019.13
2019-03-19T08:15:44.276Z,1019.11
2019-03-19T08:16:44.259Z,1019.12
2019-03-19T08:17:44.251Z,1019.15
2019-03-19T08:18:44.232Z,1019.15
2019-03-19T08:19:44.229Z,1019.16
2019-03-19T08:20:44.213Z,1019.18
2019-03-19T08:21:44.203Z,1019.16
2019-03-19T08:22:44.191Z,1019.19
2019-03-19T08:23:44.193Z,1019.20
2019-03-19T08:24:44.168Z,1019.22
2019-03-19T08:25:44.168Z,1019.23
2019-03-19T08:26:44.149Z,1019.22
2019-03-19T08:27:44.145Z,1019.26
2019-03-19T08:28:44.128Z,1019.24
2019-03-19T08:29:44.129Z,1019.27
2019-03-19T08:30:44.103Z,1019.31
2019-03-19T08:31:44.106Z,1019.31
2019-03-19T08:32:44.081Z,1019.34
2019-03-19T08:33:44.086Z,1019.36
2019-03-19T08:34:44.065Z,1019.35
2019-03-19T08:35:44.058Z,1019.38
2019-03-19T08:36:44.084Z,1019.38
2019-03-19T08:37:44.029Z,1019.37
2019-03-19T08:38:44.017Z,1019.43
2019-03-19T08:39:44.005Z,1019.40
2019-03-19T08:40:43.996Z,1019.43
2019-03-19T08:41:44.001Z,1019.44
2019-03-19T08:42:43.977Z,1019.41
2019-03-19T08:43:43.972Z,1019.46
2019-03-19T08:44:43.981Z,1019.46
2019-03-19T08:45:43.942Z,1019.47
2019-03-19T08:46:43.938Z,1019.52
2019-03-19T08:47:43.939Z,1019.53
2019-03-19T08:48:43.912Z,1019.48
2019-03-19T08:49:43.912Z,1019.50
2019-03-19T08:50:43.911Z,1019.53
2019-03-19T08:51:43.875Z,1019.52
2019-03-19T08:52:43.879Z,1019.59
2019-03-19T08:53:43.854Z,1019.54
2019-03-19T08:54:43.857Z,1019.61
2019-03-19T08:55:43.850Z,1019.59
2019-03-19T08:56:43.825Z,1019.64
2019-03-19T08:57:43.815Z,1019.59
2019-03-19T08:58:43.798Z,1019.66
2019-03-19T08:59:43.832Z,1019.64
2019-03-19T09:00:43.783Z,1019.62
2019-03-19T09:01:43.763Z,1019.69
2019-03-19T09:02:43.758Z,1019.67
2019-03-19T09:03:43.749Z,1019.70
2019-03-19T09:04:43.759Z,1019.76
2019-03-19T09:05:43.721Z,1019.72
2019-03-19T09:06:43.716Z,1019.74
2019-03-19T09:07:43.699Z,1019.76
2019-03-19T09:08:43.688Z,1019.73
2019-03-19T09:09:43.690Z,1019.75
2019-03-19T09:10:43.676Z,1019.78
2019-03-19T09:11:43.655Z,1019.78
2019-03-19T09:12:43.658Z,1019.79
2019-03-19T09:13:43.635Z,1019.77
2019-03-19T09:14:43.623Z,1019.78
2019-03-19T09:15:43.617Z,1019.82
2019-03-19T09:16:43.599Z,1019.85
2019-03-19T09:17:43.602Z,1019.85
2019-03-19T09:18:43.595Z,1019.86
2019-03-19T09:19:43.565Z,1019.83
2019-03-19T09:20:43.554Z,1019.84
2019-03-19T09:21:43.544Z,1019.82
2019-03-19T09:22:43.533Z,1019.82
2019-03-19T09:23:43.537Z,1019.85
2019-03-19T09:24:43.510Z,1019.82
2019-03-19T09:25:43.501Z,1019.87
2019-03-19T09:26:43.488Z,1019.88
2019-03-19T09:27:43.495Z,1019.87
2019-03-19T09:28:43.471Z,1019.89
2019-03-19T09:29:43.473Z,1019.92
2019-03-19T09:30:43.445Z,1019.94
2019-03-19T09:31:43.440Z,1019.96
2019-03-19T09:32:43.428Z,1019.93
2019-03-19T09:33:43.419Z,1019.90
2019-03-19T09:34:43.404Z,1019.90
2019-03-19T09:35:43.396Z,1019.89
2019-03-19T09:36:43.386Z,1019.89
2019-03-19T09:37:44.746Z,1019.89
2019-03-19T09:38:44.363Z,1019.90
2019-03-19T09:39:43.356Z,1019.86
2019-03-19T09:40:43.342Z,1019.90
2019-03-19T09:41:43.373Z,1019.90
2019-03-19T09:42:43.338Z,1019.92
2019-03-19T09:43:43.319Z,1019.89
2019-03-19T09:44:43.305Z,1020.00
2019-03-19T09:45:43.286Z,1020.02
2019-03-19T09:46:43.284Z,1019.95
2019-03-19T09:47:43.266Z,1020.00
2019-03-19T09:48:43.253Z,1020.00
2019-03-19T09:49:43.250Z,1020.01
2019-03-19T09:50:43.230Z,1020.01
2019-03-19T09:51:43.232Z,1020.07
2019-03-19T09:52:43.220Z,1020.00
2019-03-19T09:53:43.199Z,1019.94
2019-03-19T09:54:43.189Z,1019.96
2019-03-19T09:55:43.178Z,1019.95
2019-03-19T09:56:43.180Z,1019.92
2019-03-19T09:57:43.166Z,1019.95
2019-03-19T09:58:43.181Z,1019.97
2019-03-19T09:59:44.565Z,1019.94
2019-03-19T10:00:43.154Z,1019.92
2019-03-19T10:01:43.121Z,1019.96
2019-03-19T10:02:43.115Z,1019.96
2019-03-19T10:03:43.101Z,1019.88
2019-03-19T10:04:43.098Z,1019.94
2019-03-19T10:05:43.085Z,1019.86
2019-03-19T10:06:43.069Z,1019.79
2019-03-19T10:07:43.072Z,1019.89
2019-03-19T10:08:43.051Z,1019.88
2019-03-19T10:09:43.034Z,1019.89
2019-03-19T10:10:43.106Z,1019.93
2019-03-19T10:11:43.027Z,1019.90
2019-03-19T10:12:43.004Z,1019.97
2019-03-19T10:13:42.991Z,1019.93
2019-03-19T10:14:42.986Z,1019.93
2019-03-19T10:15:42.972Z,1020.00
2019-03-19T10:16:42.963Z,1019.96
2019-03-19T10:17:42.965Z,1019.95
2019-03-19T10:18:42.946Z,1020.01
2019-03-19T10:19:42.979Z,1019.94
2019-03-19T10:20:42.923Z,1020.07
2019-03-19T10:21:42.906Z,1020.10
2019-03-19T10:22:42.895Z,1020.12
2019-03-19T10:23:42.888Z,1020.12
2019-03-19T10:24:42.881Z,1020.16
2019-03-19T10:25:42.871Z,1020.14
2019-03-19T10:26:42.862Z,1020.15
2019-03-19T10:27:42.843Z,1020.17
2019-03-19T10:28:42.843Z,1020.14
2019-03-19T10:29:42.823Z,1020.12
2019-03-19T10:30:42.820Z,1020.16
2019-03-19T10:31:42.807Z,1020.16
2019-03-19T10:32:42.795Z,1020.19
2019-03-19T10:33:42.783Z,1020.19
2019-03-19T10:34:42.772Z,1020.13
2019-03-19T10:35:42.757Z,1020.07
2019-03-19T10:36:42.753Z,1020.13
2019-03-19T10:37:42.734Z,1020.11
2019-03-19T10:38:42.728Z,1020.08
2019-03-19T10:39:42.730Z,1020.10
2019-03-19T10:40:42.713Z,1020.06
2019-03-19T10:41:42.692Z,1020.05
2019-03-19T10:42:42.680Z,1020.10
2019-03-19T10:43:42.670Z,1020.07
2019-03-19T10:44:42.663Z,1020.10
2019-03-19T10:45:42.660Z,1020.11
2019-03-19T10:46:42.635Z,1020.12
2019-03-19T10:47:42.629Z,1020.16
2019-03-19T10:48:42.625Z,1020.14
2019-03-19T10:49:42.605Z,1020.17
2019-03-19T10:50:42.777Z,1020.20
2019-03-19T10:51:42.583Z,1020.21
2019-03-19T10:52:42.570Z,1020.26
2019-03-19T10:53:42.559Z,1020.28
2019-03-19T10:54:42.558Z,1020.25
2019-03-19T10:55:42.541Z,1020.24
2019-03-19T10:56:42.533Z,1020.30
2019-03-19T10:57:42.517Z,1020.25
2019-03-19T10:58:42.505Z,1020.26
2019-03-19T10:59:49.066Z,1020.28
2019-03-19T11:00:43.485Z,1020.32
2019-03-19T11:01:42.490Z,1020.42
2019-03-19T11:02:42.469Z,1020.41
2019-03-19T11:03:42.456Z,1020.47
2019-03-19T11:04:42.437Z,1020.40
2019-03-19T11:05:42.434Z,1020.43
2019-03-19T11:06:42.430Z,1020.39
2019-03-19T11:07:42.406Z,1020.42
2019-03-19T11:08:42.404Z,1020.41
2019-03-19T11:09:42.440Z,1020.41
2019-03-19T11:10:42.379Z,1020.44
2019-03-19T11:11:42.370Z,1020.46
2019-03-19T11:12:42.383Z,1020.39
2019-03-19T11:13:42.344Z,1020.36
2019-03-19T11:14:42.342Z,1020.37
2019-03-19T11:15:42.320Z,1020.34
2019-03-19T11:16:42.356Z,1020.39
2019-03-19T11:17:42.310Z,1020.39
2019-03-19T11:18:42.331Z,1020.43
2019-03-19T11:19:42.299Z,1020.38
2019-03-19T11:20:42.299Z,1020.40
2019-03-19T11:21:42.311Z,1020.39
2019-03-19T11:22:42.251Z,1020.34
2019-03-19T11:23:42.229Z,1020.35
2019-03-19T11:24:42.310Z,1020.37
2019-03-19T11:25:42.213Z,1020.33
2019-03-19T11:26:42.198Z,1020.36
2019-03-19T11:27:42.189Z,1020.36
2019-03-19T11:28:42.181Z,1020.34
2019-03-19T11:29:42.165Z,1020.34
2019-03-19T11:30:42.156Z,1020.35
2019-03-19T11:31:42.153Z,1020.35
2019-03-19T11:32:42.140Z,1020.36
2019-03-19T11:33:42.127Z,1020.35
2019-03-19T11:34:42.115Z,1020.34
2019-03-19T11:35:42.243Z,1020.35
2019-03-19T11:36:42.092Z,1020.42
2019-03-19T11:37:42.086Z,1020.39
2019-03-19T11:38:42.067Z,1020.37
2019-03-19T11:39:42.061Z,1020.40
2019-03-19T11:40:42.045Z,1020.42
2019-03-19T11:41:42.114Z,1020.44
2019-03-19T11:42:42.023Z,1020.40
2019-03-19T11:43:42.020Z,1020.38
2019-03-19T11:44:43.024Z,1020.34
2019-03-19T11:45:41.995Z,1020.33
2019-03-19T11:46:41.989Z,1020.35
2019-03-19T11:47:41.969Z,1020.38
2019-03-19T11:48:41.966Z,1020.33
2019-03-19T11:49:41.967Z,1020.34
2019-03-19T11:50:41.940Z,1020.42
2019-03-19T11:51:41.941Z,1020.48
2019-03-19T11:52:41.913Z,1020.43
2019-03-19T11:53:41.914Z,1020.45
2019-03-19T11:54:41.900Z,1020.47
2019-03-19T11:55:41.893Z,1020.47
2019-03-19T11:56:41.874Z,1020.44
2019-03-19T11:57:41.864Z,1020.45
2019-03-19T11:58:41.853Z,1020.47
2019-03-19T11:59:41.836Z,1020.43
2019-03-19T12:00:41.836Z,1020.41
2019-03-19T12:01:41.819Z,1020.40
2019-03-19T12:02:41.875Z,1020.40
2019-03-19T12:03:41.795Z,1020.45
2019-03-19T12:04:41.784Z,1020.45
2019-03-19T12:05:41.770Z,1020.50